createdAt,value
2023-04-27T00:00:57.327Z,9.719324
2023-04-27T00:01:57.330Z,9.719195
2023-04-27T00:02:57.429Z,9.719023
2023-04-27T00:03:57.362Z,9.719055
2023-04-27T00:04:57.465Z,9.719091
2023-04-27T00:05:57.328Z,9.719346
2023-04-27T00:06:57.274Z,9.719429
2023-04-27T00:07:57.258Z,9.719381
2023-04-27T00:08:57.231Z,9.719332
2023-04-27T00:09:57.257Z,9.719316
2023-04-27T00:10:57.222Z,9.719239
2023-04-27T00:11:57.203Z,9.719356
2023-04-27T00:12:57.190Z,9.719262
2023-04-27T00:13:57.215Z,9.719171
2023-04-27T00:14:57.192Z,9.719363
2023-04-27T00:15:57.207Z,9.719245
2023-04-27T00:16:57.155Z,9.719341
2023-04-27T00:17:57.174Z,9.719143
2023-04-27T00:18:57.138Z,9.719267
2023-04-27T00:19:57.149Z,9.719291
2023-04-27T00:20:57.150Z,9.719073
2023-04-27T00:21:57.129Z,9.719048
2023-04-27T00:22:57.094Z,9.719318
2023-04-27T00:23:57.093Z,9.719134
2023-04-27T00:24:57.073Z,9.719166
2023-04-27T00:25:57.076Z,9.719301
2023-04-27T00:26:57.091Z,9.719384
2023-04-27T00:27:57.049Z,9.719316
2023-04-27T00:28:57.041Z,9.719316
2023-04-27T00:29:57.043Z,9.719316
2023-04-27T00:30:57.023Z,9.719316
2023-04-27T00:31:57.036Z,9.719316
2023-04-27T00:32:57.002Z,9.719316
2023-04-27T00:33:56.991Z,9.719316
2023-04-27T00:34:56.988Z,9.719316
2023-04-27T00:35:56.967Z,9.719316
2023-04-27T00:36:56.984Z,9.719316
2023-04-27T00:37:56.951Z,9.719316
2023-04-27T00:38:56.949Z,9.719316
2023-04-27T00:39:56.923Z,9.719316
2023-04-27T00:40:56.934Z,9.719316
2023-04-27T00:41:56.933Z,9.719316
2023-04-27T00:42:56.916Z,9.719316
2023-04-27T00:43:56.884Z,9.719316
2023-04-27T00:44:56.897Z,9.719316
2023-04-27T00:45:56.930Z,9.719316
2023-04-27T00:46:56.857Z,9.719316
2023-04-27T00:47:56.967Z,9.719316
2023-04-27T00:48:56.850Z,9.719316
2023-04-27T00:49:56.860Z,9.719316
2023-04-27T00:50:56.816Z,9.719316
2023-04-27T00:51:56.813Z,9.719316
2023-04-27T00:52:56.790Z,9.719316
2023-04-27T00:53:56.854Z,9.719688
2023-04-27T00:54:56.799Z,9.719886
2023-04-27T00:55:56.783Z,9.719924
2023-04-27T00:56:56.768Z,9.719561
2023-04-27T00:57:56.765Z,9.719407
2023-04-27T00:58:56.742Z,9.719389
2023-04-27T00:59:56.751Z,9.719271
2023-04-27T01:00:56.757Z,9.719242
2023-04-27T01:01:56.747Z,9.719341
2023-04-27T01:02:56.938Z,9.719339
2023-04-27T01:03:56.966Z,9.719575
2023-04-27T01:04:56.678Z,9.719351
2023-04-27T01:05:56.680Z,9.719234
2023-04-27T01:06:56.661Z,9.719254
2023-04-27T01:07:56.663Z,9.719296
2023-04-27T01:08:56.638Z,9.719357
2023-04-27T01:09:56.622Z,9.719260
2023-04-27T01:10:56.612Z,9.719307
2023-04-27T01:11:56.610Z,9.719324
2023-04-27T01:12:56.646Z,9.719285
2023-04-27T01:13:56.594Z,9.719262
2023-04-27T01:14:56.582Z,9.719263
2023-04-27T01:15:56.567Z,9.719211
2023-04-27T01:16:56.626Z,9.719257
2023-04-27T01:17:56.589Z,9.719195
2023-04-27T01:18:56.546Z,9.719177
2023-04-27T01:19:56.527Z,9.719089
2023-04-27T01:20:56.519Z,9.719219
2023-04-27T01:21:56.520Z,9.719181
2023-04-27T01:22:56.496Z,9.719275
2023-04-27T01:23:56.504Z,9.719192
2023-04-27T01:24:56.538Z,9.719236
2023-04-27T01:25:56.476Z,9.719236
2023-04-27T01:26:56.496Z,9.719210
2023-04-27T01:27:56.489Z,9.719239
2023-04-27T01:28:56.481Z,9.719174
2023-04-27T01:29:56.441Z,9.719358
2023-04-27T01:30:56.484Z,9.719183
2023-04-27T01:31:56.411Z,9.719147
2023-04-27T01:32:56.442Z,9.719221
2023-04-27T01:33:56.445Z,9.719201
2023-04-27T01:34:56.389Z,9.719121
2023-04-27T01:35:56.391Z,9.719186
2023-04-27T01:36:56.367Z,9.719298
2023-04-27T01:37:56.384Z,9.718949
2023-04-27T01:38:56.383Z,9.719521
2023-04-27T01:39:56.346Z,9.719324
2023-04-27T01:40:56.342Z,9.719621
2023-04-27T01:41:58.387Z,9.719477
2023-04-27T01:42:57.315Z,9.719511
2023-04-27T01:43:56.325Z,9.719526
2023-04-27T01:44:56.308Z,9.719595
2023-04-27T01:45:56.333Z,9.719565
2023-04-27T01:46:56.281Z,9.719500
2023-04-27T01:47:56.330Z,9.719569
2023-04-27T01:48:56.258Z,9.719279
2023-04-27T01:49:56.264Z,9.719285
2023-04-27T01:50:56.267Z,9.719241
2023-04-27T01:51:56.225Z,9.719220
2023-04-27T01:52:56.249Z,9.719143
2023-04-27T01:53:56.209Z,9.719111
2023-04-27T01:54:57.224Z,9.719154
2023-04-27T01:55:56.204Z,9.719138
2023-04-27T01:56:57.212Z,9.719121
2023-04-27T01:57:56.174Z,9.719057
2023-04-27T01:58:56.157Z,9.719037
2023-04-27T01:59:56.266Z,9.719116
2023-04-27T02:00:56.154Z,9.719126
2023-04-27T02:01:56.222Z,9.719123
2023-04-27T02:02:56.205Z,9.719129
2023-04-27T02:03:56.278Z,9.719077
2023-04-27T02:04:56.192Z,9.719080
2023-04-27T02:05:56.100Z,9.719103
2023-04-27T02:06:56.094Z,9.719043
2023-04-27T02:07:56.080Z,9.719074
2023-04-27T02:08:56.084Z,9.719047
2023-04-27T02:09:56.071Z,9.719049
2023-04-27T02:10:56.050Z,9.719069
2023-04-27T02:11:56.046Z,9.719105
2023-04-27T02:12:56.038Z,9.719104
2023-04-27T02:13:56.045Z,9.719057
2023-04-27T02:14:56.029Z,9.719061
2023-04-27T02:15:56.054Z,9.719071
2023-04-27T02:16:55.996Z,9.719115
2023-04-27T02:17:56.101Z,9.719159
2023-04-27T02:18:55.999Z,9.719170
2023-04-27T02:19:55.981Z,9.719062
2023-04-27T02:20:55.971Z,9.719103
2023-04-27T02:21:55.970Z,9.719057
2023-04-27T02:22:55.940Z,9.719119
2023-04-27T02:23:55.922Z,9.719159
2023-04-27T02:24:55.930Z,9.719257
2023-04-27T02:25:55.903Z,9.719251
2023-04-27T02:26:55.906Z,9.719183
2023-04-27T02:27:55.904Z,9.719184
2023-04-27T02:28:55.931Z,9.719114
2023-04-27T02:29:55.893Z,9.719229
2023-04-27T02:30:55.853Z,9.719303
2023-04-27T02:31:55.942Z,9.719193
2023-04-27T02:32:55.859Z,9.719167
2023-04-27T02:33:55.842Z,9.719238
2023-04-27T02:34:55.819Z,9.719222
2023-04-27T02:35:55.822Z,9.719201
2023-04-27T02:36:55.795Z,9.719138
2023-04-27T02:37:55.791Z,9.719176
2023-04-27T02:38:55.779Z,9.719173
2023-04-27T02:39:55.775Z,9.719148
2023-04-27T02:40:55.781Z,9.719137
2023-04-27T02:41:55.767Z,9.719159
2023-04-27T02:42:55.739Z,9.719163
2023-04-27T02:43:55.746Z,9.719148
2023-04-27T02:44:55.721Z,9.719164
2023-04-27T02:45:55.704Z,9.719178
2023-04-27T02:46:55.746Z,9.719157
2023-04-27T02:47:55.781Z,9.719121
2023-04-27T02:48:55.704Z,9.719131
2023-04-27T02:49:55.698Z,9.719109
2023-04-27T02:50:55.663Z,9.719044
2023-04-27T02:51:55.631Z,9.719105
2023-04-27T02:52:55.642Z,9.719119
2023-04-27T02:53:55.643Z,9.719090
2023-04-27T02:54:55.630Z,9.719005
2023-04-27T02:55:55.604Z,9.719058
2023-04-27T02:56:55.631Z,9.719035
2023-04-27T02:57:55.585Z,9.718936
2023-04-27T02:58:55.575Z,9.718557
2023-04-27T02:59:55.627Z,9.719003
2023-04-27T03:00:55.658Z,9.719071
2023-04-27T03:01:55.568Z,9.719142
2023-04-27T03:02:55.687Z,9.719147
2023-04-27T03:03:55.694Z,9.719126
2023-04-27T03:04:55.554Z,9.719194
2023-04-27T03:05:55.534Z,9.719010
2023-04-27T03:06:55.523Z,9.719151
2023-04-27T03:08:27.412Z,9.719142
2023-04-27T03:08:55.501Z,9.719154
2023-04-27T03:09:55.482Z,9.719100
2023-04-27T03:10:55.492Z,9.718492
2023-04-27T03:11:55.464Z,9.718926
2023-04-27T03:12:55.460Z,9.719141
2023-04-27T03:13:55.446Z,9.719087
2023-04-27T03:14:55.421Z,9.719229
2023-04-27T03:15:55.434Z,9.719259
2023-04-27T03:16:55.453Z,9.718975
2023-04-27T03:17:55.481Z,9.719010
2023-04-27T03:18:55.396Z,9.719032
2023-04-27T03:19:55.461Z,9.719058
2023-04-27T03:20:55.375Z,9.718980
2023-04-27T03:21:55.366Z,9.719021
2023-04-27T03:22:55.394Z,9.719090
2023-04-27T03:23:55.363Z,9.719069
2023-04-27T03:24:55.333Z,9.718998
2023-04-27T03:25:55.360Z,9.719054
2023-04-27T03:26:55.323Z,9.719073
2023-04-27T03:27:55.316Z,9.719251
2023-04-27T03:28:55.317Z,9.719069
2023-04-27T03:29:55.286Z,9.719048
2023-04-27T03:30:55.292Z,9.719140
2023-04-27T03:31:55.315Z,9.719220
2023-04-27T03:32:55.305Z,9.719246
2023-04-27T03:33:55.270Z,9.719170
2023-04-27T03:34:55.292Z,9.719144
2023-04-27T03:35:55.242Z,9.719223
2023-04-27T03:36:55.222Z,9.719099
2023-04-27T03:37:55.220Z,9.718940
2023-04-27T03:38:55.210Z,9.719151
2023-04-27T03:39:55.219Z,9.719146
2023-04-27T03:40:55.202Z,9.719001
2023-04-27T03:41:55.228Z,9.719095
2023-04-27T03:42:55.484Z,9.719213
2023-04-27T03:43:55.231Z,9.719430
2023-04-27T03:44:55.157Z,9.719421
2023-04-27T03:45:55.232Z,9.719194
2023-04-27T03:46:55.125Z,9.719069
2023-04-27T03:47:55.167Z,9.719034
2023-04-27T03:48:55.142Z,9.718996
2023-04-27T03:49:55.111Z,9.719353
2023-04-27T03:50:55.090Z,9.719254
2023-04-27T03:51:55.141Z,9.719379
2023-04-27T03:52:55.066Z,9.719025
2023-04-27T03:53:55.080Z,9.719237
2023-04-27T03:54:55.059Z,9.719397
2023-04-27T03:55:55.041Z,9.719170
2023-04-27T03:56:55.025Z,9.719111
2023-04-27T03:57:55.048Z,9.719228
2023-04-27T03:58:55.037Z,9.719156
2023-04-27T03:59:55.028Z,9.719006
2023-04-27T04:00:54.993Z,9.719040
2023-04-27T04:01:55.040Z,9.718563
2023-04-27T04:02:55.123Z,9.719125
2023-04-27T04:03:55.132Z,9.718909
2023-04-27T04:04:55.060Z,9.719151
2023-04-27T04:05:54.985Z,9.719051
2023-04-27T04:06:54.923Z,9.719665
2023-04-27T04:07:54.918Z,9.719144
2023-04-27T04:08:54.945Z,9.719007
2023-04-27T04:09:54.908Z,9.718850
2023-04-27T04:10:54.895Z,9.719606
2023-04-27T04:11:54.882Z,9.719415
2023-04-27T04:12:54.867Z,9.718943
2023-04-27T04:13:54.887Z,9.718833
2023-04-27T04:14:54.890Z,9.718955
2023-04-27T04:15:54.867Z,9.718860
2023-04-27T04:16:54.867Z,9.718644
2023-04-27T04:17:54.863Z,9.718674
2023-04-27T04:18:54.822Z,9.719005
2023-04-27T04:19:54.825Z,9.719226
2023-04-27T04:20:54.829Z,9.719033
2023-04-27T04:21:54.820Z,9.719090
2023-04-27T04:22:54.787Z,9.719064
2023-04-27T04:23:54.776Z,9.719085
2023-04-27T04:24:54.759Z,9.719191
2023-04-27T04:25:54.765Z,9.719444
2023-04-27T04:26:54.744Z,9.719213
2023-04-27T04:27:54.736Z,9.719147
2023-04-27T04:28:54.719Z,9.718958
2023-04-27T04:29:54.716Z,9.719304
2023-04-27T04:30:54.808Z,9.719523
2023-04-27T04:31:54.691Z,9.719140
2023-04-27T04:32:54.706Z,9.719163
2023-04-27T04:33:54.687Z,9.719253
2023-04-27T04:34:54.692Z,9.718976
2023-04-27T04:35:54.686Z,9.718896
2023-04-27T04:36:54.629Z,9.719017
2023-04-27T04:37:54.635Z,9.718943
2023-04-27T04:38:54.607Z,9.719030
2023-04-27T04:39:54.649Z,9.719146
2023-04-27T04:40:54.614Z,9.719137
2023-04-27T04:41:54.592Z,9.719222
2023-04-27T04:42:54.582Z,9.719166
2023-04-27T04:43:54.575Z,9.718996
2023-04-27T04:44:54.573Z,9.719193
2023-04-27T04:45:54.548Z,9.719052
2023-04-27T04:46:54.642Z,9.718959
2023-04-27T04:47:54.645Z,9.719186
2023-04-27T04:48:54.945Z,9.719198
2023-04-27T04:49:55.522Z,9.719028
2023-04-27T04:50:54.511Z,9.719176
2023-04-27T04:51:54.520Z,9.719220
2023-04-27T04:52:54.503Z,9.719153
2023-04-27T04:53:54.478Z,9.719209
2023-04-27T04:54:54.489Z,9.719194
2023-04-27T04:55:54.444Z,9.719110
2023-04-27T04:56:54.446Z,9.719031
2023-04-27T04:57:54.441Z,9.719148
2023-04-27T04:58:54.419Z,9.719228
2023-04-27T04:59:54.444Z,9.719200
2023-04-27T05:00:54.432Z,9.719197
2023-04-27T05:01:54.407Z,9.719217
2023-04-27T05:02:54.595Z,9.719338
2023-04-27T05:03:54.481Z,9.719311
2023-04-27T05:04:54.577Z,9.719301
2023-04-27T05:05:54.384Z,9.719314
2023-04-27T05:06:54.347Z,9.719258
2023-04-27T05:07:54.353Z,9.719284
2023-04-27T05:08:54.356Z,9.719300
2023-04-27T05:09:54.321Z,9.719206
2023-04-27T05:10:54.338Z,9.719230
2023-04-27T05:11:54.305Z,9.719226
2023-04-27T05:12:54.292Z,9.719332
2023-04-27T05:13:54.289Z,9.719213
2023-04-27T05:14:54.277Z,9.719148
2023-04-27T05:15:54.306Z,9.719161
2023-04-27T05:16:54.271Z,9.719202
2023-04-27T05:17:54.376Z,9.719216
2023-04-27T05:18:54.227Z,9.719160
2023-04-27T05:19:54.246Z,9.719275
2023-04-27T05:20:54.207Z,9.719161
2023-04-27T05:21:54.242Z,9.719139
2023-04-27T05:22:54.211Z,9.719148
2023-04-27T05:23:54.179Z,9.719026
2023-04-27T05:24:54.163Z,9.718869
2023-04-27T05:25:54.154Z,9.719152
2023-04-27T05:26:54.163Z,9.719178
2023-04-27T05:27:54.153Z,9.719145
2023-04-27T05:28:54.152Z,9.719115
2023-04-27T05:29:54.131Z,9.719006
2023-04-27T05:30:54.147Z,9.719286
2023-04-27T05:31:54.174Z,9.719382
2023-04-27T05:32:54.121Z,9.719276
2023-04-27T05:33:54.075Z,9.719415
2023-04-27T05:34:54.111Z,9.719457
2023-04-27T05:35:54.058Z,9.719373
2023-04-27T05:36:54.066Z,9.719369
2023-04-27T05:37:54.046Z,9.719435
2023-04-27T05:38:54.031Z,9.719445
2023-04-27T05:39:54.047Z,9.719275
2023-04-27T05:40:55.496Z,9.718902
2023-04-27T05:41:55.007Z,9.719070
2023-04-27T05:42:53.989Z,9.719182
2023-04-27T05:43:53.990Z,9.719299
2023-04-27T05:44:53.993Z,9.719173
2023-04-27T05:45:54.035Z,9.719245
2023-04-27T05:46:53.948Z,9.719161
2023-04-27T05:47:54.023Z,9.719350
2023-04-27T05:48:53.937Z,9.719408
2023-04-27T05:49:53.926Z,9.719670
2023-04-27T05:50:53.935Z,9.719570
2023-04-27T05:51:53.920Z,9.719382
2023-04-27T05:52:53.892Z,9.719312
2023-04-27T05:53:53.887Z,9.719349
2023-04-27T05:54:53.895Z,9.719478
2023-04-27T05:55:53.879Z,9.719535
2023-04-27T05:56:53.862Z,9.719438
2023-04-27T05:58:04.583Z,9.719301
2023-04-27T05:58:54.855Z,9.719251
2023-04-27T05:59:53.819Z,9.719238
2023-04-27T06:00:53.835Z,9.719448
2023-04-27T06:01:53.813Z,9.719459
2023-04-27T06:02:53.857Z,9.719337
2023-04-27T06:03:53.934Z,9.719174
2023-04-27T06:04:53.808Z,9.719203
2023-04-27T06:05:53.783Z,9.719300
2023-04-27T06:06:53.778Z,9.719338
2023-04-27T06:07:53.796Z,9.719316
2023-04-27T06:08:53.780Z,9.719434
2023-04-27T06:09:53.753Z,9.719420
2023-04-27T06:10:53.719Z,9.719383
2023-04-27T06:11:53.708Z,9.719377
2023-04-27T06:12:53.706Z,9.719487
2023-04-27T06:13:53.705Z,9.719415
2023-04-27T06:14:53.676Z,9.719482
2023-04-27T06:15:53.742Z,9.719549
2023-04-27T06:16:53.653Z,9.719423
2023-04-27T06:17:53.705Z,9.719321
2023-04-27T06:18:53.680Z,9.719247
2023-04-27T06:19:53.634Z,9.719324
2023-04-27T06:20:53.624Z,9.719351
2023-04-27T06:21:53.608Z,9.719266
2023-04-27T06:22:53.645Z,9.719114
2023-04-27T06:23:53.600Z,9.719259
2023-04-27T06:24:53.581Z,9.719501
2023-04-27T06:25:53.551Z,9.719462
2023-04-27T06:26:53.563Z,9.719356
2023-04-27T06:27:53.555Z,9.719377
2023-04-27T06:28:53.562Z,9.719411
2023-04-27T06:29:53.534Z,9.719521
2023-04-27T06:30:53.526Z,9.719293
2023-04-27T06:31:53.551Z,9.719189
2023-04-27T06:32:53.559Z,9.719110
2023-04-27T06:33:53.506Z,9.719286
2023-04-27T06:34:53.490Z,9.719325
2023-04-27T06:35:53.514Z,9.719314
2023-04-27T06:36:53.483Z,9.719378
2023-04-27T06:37:53.470Z,9.719543
2023-04-27T06:38:53.441Z,9.719629
2023-04-27T06:39:53.455Z,9.719341
2023-04-27T06:40:53.450Z,9.719346
2023-04-27T06:41:53.406Z,9.719309
2023-04-27T06:42:53.431Z,9.719270
2023-04-27T06:43:53.395Z,9.719289
2023-04-27T06:44:53.390Z,9.719098
2023-04-27T06:45:53.536Z,9.719164
2023-04-27T06:46:53.377Z,9.719170
2023-04-27T06:47:53.421Z,9.719114
2023-04-27T06:48:53.349Z,9.719157
2023-04-27T06:49:53.347Z,9.719160
2023-04-27T06:50:53.353Z,9.719218
2023-04-27T06:51:53.335Z,9.719167
2023-04-27T06:52:53.419Z,9.719142
2023-04-27T06:53:53.294Z,9.719201
2023-04-27T06:54:53.301Z,9.719173
2023-04-27T06:55:53.290Z,9.719180
2023-04-27T06:56:53.285Z,9.719230
2023-04-27T06:57:53.293Z,9.719292
2023-04-27T06:58:53.269Z,9.719324
2023-04-27T06:59:53.242Z,9.719246
2023-04-27T07:00:53.242Z,9.719177
2023-04-27T07:01:53.309Z,9.719127
2023-04-27T07:02:53.309Z,9.719127
2023-04-27T07:03:53.338Z,9.719127
2023-04-27T07:04:53.221Z,9.719199
2023-04-27T07:05:53.217Z,9.719199
2023-04-27T07:06:53.193Z,9.719136
2023-04-27T07:07:53.178Z,9.719195
2023-04-27T07:08:53.179Z,9.719230
2023-04-27T07:09:53.160Z,9.719281
2023-04-27T07:10:53.441Z,9.719304
2023-04-27T07:11:53.133Z,9.719289
2023-04-27T07:12:53.162Z,9.719256
2023-04-27T07:13:53.117Z,9.719159
2023-04-27T07:14:53.111Z,9.719292
2023-04-27T07:15:53.125Z,9.719283
2023-04-27T07:16:53.085Z,9.719318
2023-04-27T07:17:53.100Z,9.719296
2023-04-27T07:18:53.152Z,9.719204
2023-04-27T07:19:53.050Z,9.719134
2023-04-27T07:20:53.055Z,9.719163
2023-04-27T07:21:53.037Z,9.719267
2023-04-27T07:22:53.049Z,9.719170
2023-04-27T07:23:54.438Z,9.719183
2023-04-27T07:24:53.048Z,9.719097
2023-04-27T07:25:53.038Z,9.719257
2023-04-27T07:26:52.995Z,9.719221
2023-04-27T07:27:52.977Z,9.719273
2023-04-27T07:28:52.966Z,9.719182
2023-04-27T07:29:52.959Z,9.719255
2023-04-27T07:30:52.974Z,9.719298
2023-04-27T07:31:53.076Z,9.719325
2023-04-27T07:32:53.003Z,9.719320
2023-04-27T07:33:52.933Z,9.719223
2023-04-27T07:34:54.315Z,9.719340
2023-04-27T07:35:54.061Z,9.719341
2023-04-27T07:36:52.919Z,9.719321
2023-04-27T07:37:52.881Z,9.719361
2023-04-27T07:38:52.887Z,9.719394
2023-04-27T07:39:52.865Z,9.719354
2023-04-27T07:40:52.854Z,9.719349
2023-04-27T07:41:52.927Z,9.719333
2023-04-27T07:42:52.842Z,9.719373
2023-04-27T07:43:52.824Z,9.719397
2023-04-27T07:44:52.923Z,9.719356
2023-04-27T07:45:52.825Z,9.719164
2023-04-27T07:46:52.798Z,9.719215
2023-04-27T07:47:52.790Z,9.719295
2023-04-27T07:48:52.798Z,9.719191
2023-04-27T07:49:52.759Z,9.719295
2023-04-27T07:50:52.751Z,9.719204
2023-04-27T07:51:52.743Z,9.719425
2023-04-27T07:52:53.765Z,9.719257
2023-04-27T07:53:52.766Z,9.719209
2023-04-27T07:54:52.742Z,9.719407
2023-04-27T07:55:52.731Z,9.719321
2023-04-27T07:56:52.706Z,9.719286
2023-04-27T07:57:52.704Z,9.719253
2023-04-27T07:58:52.687Z,9.719472
2023-04-27T07:59:52.714Z,9.719476
2023-04-27T08:00:52.658Z,9.719180
2023-04-27T08:01:54.359Z,9.719301
2023-04-27T08:02:52.925Z,9.719307
2023-04-27T08:03:52.853Z,9.719315
2023-04-27T08:04:52.834Z,9.719289
2023-04-27T08:05:52.974Z,9.719376
2023-04-27T08:06:53.190Z,9.719586
2023-04-27T08:07:53.138Z,9.719338
2023-04-27T08:08:52.577Z,9.719029
2023-04-27T08:09:52.612Z,9.719978
2023-04-27T08:10:52.571Z,9.720141
2023-04-27T08:11:52.565Z,9.720195
2023-04-27T08:12:52.545Z,9.719822
2023-04-27T08:13:52.579Z,9.719487
2023-04-27T08:14:52.513Z,9.719155
2023-04-27T08:15:52.583Z,9.718826
2023-04-27T08:16:52.544Z,9.718910
2023-04-27T08:17:52.575Z,9.718931
2023-04-27T08:18:52.507Z,9.718307
2023-04-27T08:19:52.493Z,9.717921
2023-04-27T08:20:52.462Z,9.718318
2023-04-27T08:21:52.480Z,9.718751
2023-04-27T08:22:52.455Z,9.719039
2023-04-27T08:23:52.445Z,9.718992
2023-04-27T08:24:52.438Z,9.718948
2023-04-27T08:25:52.423Z,9.718995
2023-04-27T08:26:52.427Z,9.719038
2023-04-27T08:27:52.409Z,9.719006
2023-04-27T08:28:52.388Z,9.719112
2023-04-27T08:29:52.402Z,9.719029
2023-04-27T08:30:53.490Z,9.719047
2023-04-27T08:31:54.361Z,9.718940
2023-04-27T08:32:52.422Z,9.718966
2023-04-27T08:33:52.344Z,9.719053
2023-04-27T08:34:52.341Z,9.719005
2023-04-27T08:35:52.353Z,9.719040
2023-04-27T08:36:52.323Z,9.718952
2023-04-27T08:37:52.306Z,9.719115
2023-04-27T08:38:52.299Z,9.719007
2023-04-27T08:39:52.417Z,9.718854
2023-04-27T08:40:52.283Z,9.719076
2023-04-27T08:41:52.284Z,9.719125
2023-04-27T08:42:52.254Z,9.718992
2023-04-27T08:43:52.315Z,9.718993
2023-04-27T08:44:52.229Z,9.719094
2023-04-27T08:45:52.287Z,9.719050
2023-04-27T08:46:52.288Z,9.719137
2023-04-27T08:47:52.222Z,9.719131
2023-04-27T08:48:52.193Z,9.719246
2023-04-27T08:49:52.190Z,9.719221
2023-04-27T08:50:52.190Z,9.719207
2023-04-27T08:51:52.163Z,9.719224
2023-04-27T08:52:52.186Z,9.719315
2023-04-27T08:53:52.153Z,9.719265
2023-04-27T08:54:52.143Z,9.719112
2023-04-27T08:55:52.194Z,9.719170
2023-04-27T08:56:52.141Z,9.719197
2023-04-27T08:57:52.103Z,9.719199
2023-04-27T08:58:52.179Z,9.719247
2023-04-27T08:59:52.096Z,9.719208
2023-04-27T09:00:52.678Z,9.719125
2023-04-27T09:01:53.269Z,9.719174
2023-04-27T09:02:52.158Z,9.719247
2023-04-27T09:03:52.162Z,9.719268
2023-04-27T09:04:52.142Z,9.719106
2023-04-27T09:06:03.711Z,9.718657
2023-04-27T09:06:54.046Z,9.719137
2023-04-27T09:07:52.023Z,9.719574
2023-04-27T09:08:52.002Z,9.719342
2023-04-27T09:09:51.991Z,9.719325
2023-04-27T09:10:51.977Z,9.719218
2023-04-27T09:11:51.966Z,9.719213
2023-04-27T09:12:52.064Z,9.719079
2023-04-27T09:13:51.966Z,9.719149
2023-04-27T09:14:51.934Z,9.719126
2023-04-27T09:15:51.963Z,9.719275
2023-04-27T09:16:52.000Z,9.719184
2023-04-27T09:17:51.932Z,9.718899
2023-04-27T09:18:51.924Z,9.719168
2023-04-27T09:19:51.895Z,9.718989
2023-04-27T09:20:51.946Z,9.719119
2023-04-27T09:21:51.897Z,9.719097
2023-04-27T09:22:51.881Z,9.719162
2023-04-27T09:23:51.862Z,9.719070
2023-04-27T09:24:51.864Z,9.718876
2023-04-27T09:25:51.860Z,9.719049
2023-04-27T09:26:51.816Z,9.719049
2023-04-27T09:27:51.830Z,9.719049
2023-04-27T09:28:51.816Z,9.719049
2023-04-27T09:29:52.795Z,9.719049
2023-04-27T09:30:51.814Z,9.719049
2023-04-27T09:31:51.843Z,9.719049
2023-04-27T09:32:51.788Z,9.719049
2023-04-27T09:33:51.759Z,9.719049
2023-04-27T09:34:51.770Z,9.719049
2023-04-27T09:35:51.745Z,9.719082
2023-04-27T09:36:51.823Z,9.719130
2023-04-27T09:37:51.730Z,9.719241
2023-04-27T09:38:51.717Z,9.719231
2023-04-27T09:39:51.734Z,9.719232
2023-04-27T09:40:51.696Z,9.719146
2023-04-27T09:41:51.686Z,9.718985
2023-04-27T09:42:51.682Z,9.719020
2023-04-27T09:43:51.684Z,9.719186
2023-04-27T09:44:51.646Z,9.719224
2023-04-27T09:45:51.697Z,9.719178
2023-04-27T09:46:51.672Z,9.719182
2023-04-27T09:47:51.678Z,9.719211
2023-04-27T09:48:51.642Z,9.719097
2023-04-27T09:49:51.601Z,9.719061
2023-04-27T09:50:51.599Z,9.719003
2023-04-27T09:51:51.628Z,9.719038
2023-04-27T09:52:51.604Z,9.719013
2023-04-27T09:53:51.590Z,9.719105
2023-04-27T09:54:51.561Z,9.719159
2023-04-27T09:55:51.728Z,9.719088
2023-04-27T09:56:52.564Z,9.719153
2023-04-27T09:57:51.540Z,9.719203
2023-04-27T09:58:51.520Z,9.719269
2023-04-27T09:59:51.517Z,9.719296
2023-04-27T10:00:51.524Z,9.719296
2023-04-27T10:01:51.542Z,9.719355
2023-04-27T10:02:53.661Z,9.719391
2023-04-27T10:03:52.570Z,9.719316
2023-04-27T10:04:51.486Z,9.719312
2023-04-27T10:05:51.489Z,9.719283
2023-04-27T10:06:51.441Z,9.719252
2023-04-27T10:07:51.421Z,9.719310
2023-04-27T10:08:51.408Z,9.719308
2023-04-27T10:09:51.450Z,9.719286
2023-04-27T10:10:51.395Z,9.719247
2023-04-27T10:11:51.387Z,9.719316
2023-04-27T10:12:51.408Z,9.719253
2023-04-27T10:13:52.330Z,9.719345
2023-04-27T10:14:51.360Z,9.719275
2023-04-27T10:15:51.445Z,9.719356
2023-04-27T10:16:51.379Z,9.719286
2023-04-27T10:17:51.371Z,9.719289
2023-04-27T10:18:51.320Z,9.719256
2023-04-27T10:19:53.801Z,9.719332
2023-04-27T10:20:51.331Z,9.719267
2023-04-27T10:21:51.298Z,9.719324
2023-04-27T10:22:51.394Z,9.719264
2023-04-27T10:23:51.316Z,9.719316
2023-04-27T10:24:51.260Z,9.719306
2023-04-27T10:25:51.284Z,9.719286
2023-04-27T10:26:51.243Z,9.719319
2023-04-27T10:27:51.239Z,9.719287
2023-04-27T10:28:51.229Z,9.719334
2023-04-27T10:29:51.221Z,9.719316
2023-04-27T10:30:51.254Z,9.719296
2023-04-27T10:31:51.212Z,9.719336
2023-04-27T10:32:51.316Z,9.719338
2023-04-27T10:33:51.174Z,9.719212
2023-04-27T10:34:51.178Z,9.719326
2023-04-27T10:35:51.161Z,9.719262
2023-04-27T10:36:51.148Z,9.719323
2023-04-27T10:37:51.155Z,9.719176
2023-04-27T10:38:51.180Z,9.719172
2023-04-27T10:39:52.239Z,9.719000
2023-04-27T10:40:51.107Z,9.719045
2023-04-27T10:41:51.132Z,9.718963
2023-04-27T10:42:51.107Z,9.719046
2023-04-27T10:43:51.089Z,9.719131
2023-04-27T10:44:51.136Z,9.719099
2023-04-27T10:45:51.103Z,9.719207
2023-04-27T10:46:51.081Z,9.719179
2023-04-27T10:47:51.106Z,9.719232
2023-04-27T10:48:51.033Z,9.719200
2023-04-27T10:49:51.027Z,9.719169
2023-04-27T10:50:51.047Z,9.719221
2023-04-27T10:51:51.011Z,9.719295
2023-04-27T10:52:51.057Z,9.719314
2023-04-27T10:53:51.062Z,9.719258
2023-04-27T10:54:50.994Z,9.719296
2023-04-27T10:55:50.979Z,9.719395
2023-04-27T10:56:50.951Z,9.719507
2023-04-27T10:57:51.058Z,9.719542
2023-04-27T10:58:50.956Z,9.719420
2023-04-27T10:59:50.953Z,9.719342
2023-04-27T11:00:50.920Z,9.719252
2023-04-27T11:01:50.941Z,9.719253
2023-04-27T11:02:50.932Z,9.719321
2023-04-27T11:03:50.982Z,9.719201
2023-04-27T11:04:50.987Z,9.719399
2023-04-27T11:05:50.942Z,9.719381
2023-04-27T11:06:50.871Z,9.719304
2023-04-27T11:07:50.852Z,9.719250
2023-04-27T11:08:50.866Z,9.719365
2023-04-27T11:09:50.820Z,9.719331
2023-04-27T11:10:50.844Z,9.719316
2023-04-27T11:11:50.830Z,9.719336
2023-04-27T11:12:50.831Z,9.719363
2023-04-27T11:13:50.835Z,9.719264
2023-04-27T11:14:50.779Z,9.719333
2023-04-27T11:15:50.855Z,9.719411
2023-04-27T11:16:50.775Z,9.719513
2023-04-27T11:17:50.787Z,9.719629
2023-04-27T11:18:50.761Z,9.719501
2023-04-27T11:19:50.728Z,9.719389
2023-04-27T11:20:50.716Z,9.719370
2023-04-27T11:21:50.740Z,9.719381
2023-04-27T11:22:50.693Z,9.719394
2023-04-27T11:23:50.710Z,9.719395
2023-04-27T11:24:50.698Z,9.719361
2023-04-27T11:25:50.664Z,9.719488
2023-04-27T11:26:50.694Z,9.719792
2023-04-27T11:27:50.646Z,9.719645
2023-04-27T11:28:50.641Z,9.719545
2023-04-27T11:29:50.717Z,9.719551
2023-04-27T11:30:50.629Z,9.719599
2023-04-27T11:31:50.645Z,9.719512
2023-04-27T11:32:50.623Z,9.719599
2023-04-27T11:33:50.612Z,9.719562
2023-04-27T11:34:50.592Z,9.719666
2023-04-27T11:35:50.593Z,9.719556
2023-04-27T11:36:50.566Z,9.719554
2023-04-27T11:37:50.553Z,9.719868
2023-04-27T11:38:50.586Z,9.719650
2023-04-27T11:39:50.557Z,9.719543
2023-04-27T11:40:50.527Z,9.719532
2023-04-27T11:41:50.498Z,9.719335
2023-04-27T11:42:50.507Z,9.719418
2023-04-27T11:43:50.492Z,9.719547
2023-04-27T11:44:50.537Z,9.719810